Aviation Digital Data Service (ADDS)

Output produced by TAFs form (1617 UTC 25 April 2018)
found at http://aviationweather.gov/adds/tafs/
 
METAR text: LFMY 251600Z AUTO 25010KT 220V280 CAVOK 25/17 Q1014
Conditions at: LFMY (SALON (FAFB) , FR) observed 1600 UTC 25 April 2018
Temperature: 25.0°C (77°F)
Dewpoint: 17.0°C (63°F) [RH = 61%]
Pressure (altimeter): 29.94 inches Hg (1014.0 mb)
Winds: from the WSW (250 degrees) at 12 MPH (10 knots; 5.2 m/s)
Visibility: 6 or more miles (10+ km)
Ceiling: ceiling and visibility are OK
Clouds: unknown
Weather: no significant weather observed at this time

Forecast for: LFMY (SALON (FAFB) , FR)
Text: TAF LFMY 251400Z 2515/2615 27010KT CAVOK
Forecast period: 1500 to 2100 UTC 25 April 2018
Forecast type: FROM: standard forecast or significant change
Winds: from the W (270 degrees) at 12 MPH (10 knots; 5.2 m/s)
Visibility: 6 or more miles (10+ km)
Clouds: not forecast
Weather: NSW  (no significant weather)
Forecast for: LFMY (SALON (FAFB) , FR)
Text: TAF LFMY 251400Z 2515/2615 27010KT CAVOK
Forecast period: 1500 to 2100 UTC 25 April 2018
Forecast type: FROM: standard forecast or significant change
Winds: from the W (270 degrees) at 12 MPH (10 knots; 5.2 m/s)
Visibility: 6 or more miles (10+ km)
Clouds: not forecast
Weather: NSW  (no significant weather)
Forecast for: LFMY (SALON (FAFB) , FR)
Text: TAF LFMY 251400Z 2515/2615 27010KT CAVOK
Forecast period: 2100 UTC 25 April 2018 to 1500 UTC 26 April 2018
Forecast type: BECOMING: Conditions expected to become as follows by 2300 UTC 25 April 2018
Winds: from the NW (320 degrees) at 17 MPH (15 knots; 7.8 m/s)
gusting to 29 MPH (25 knots; 13.0 m/s)
Visibility: 6 or more miles (10+ km)
Weather: NSW  (no significant weather)
Forecast for: LFMY (SALON (FAFB) , FR)
Text: TAF LFMY 251400Z 2515/2615 27010KT CAVOK
Forecast period: 2100 UTC 25 April 2018 to 1500 UTC 26 April 2018
Forecast type: BECOMING: Conditions expected to become as follows by 2300 UTC 25 April 2018
Winds: from the NW (320 degrees) at 17 MPH (15 knots; 7.8 m/s)
gusting to 29 MPH (25 knots; 13.0 m/s)
Visibility: 6 or more miles (10+ km)
Weather: NSW  (no significant weather)